sensor_id;sensor_type;location;lat;lon;timestamp;pressure;altitude;pressure_sealevel;temperature;humidity
57779;BME280;43608;49.486;9.640;2023-01-27T00:00:20;98982.50;;;-1.63;79.45
57779;BME280;43608;49.486;9.640;2023-01-27T00:00:51;98976.34;;;-1.65;79.57
57779;BME280;43608;49.486;9.640;2023-01-27T00:01:22;98979.16;;;-1.60;79.67
57779;BME280;43608;49.486;9.640;2023-01-27T00:01:52;98960.44;;;-1.71;79.06
57779;BME280;43608;49.486;9.640;2023-01-27T00:02:23;98981.69;;;-1.62;79.10
57779;BME280;43608;49.486;9.640;2023-01-27T00:02:53;98992.31;;;-1.57;79.41
57779;BME280;43608;49.486;9.640;2023-01-27T00:03:24;98959.41;;;-1.75;79.62
57779;BME280;43608;49.486;9.640;2023-01-27T00:03:54;98991.34;;;-1.59;79.54
57779;BME280;43608;49.486;9.640;2023-01-27T00:04:25;98990.59;;;-1.57;79.28
57779;BME280;43608;49.486;9.640;2023-01-27T00:04:55;98985.31;;;-1.58;79.29
57779;BME280;43608;49.486;9.640;2023-01-27T00:05:25;98976.34;;;-1.65;79.50
57779;BME280;43608;49.486;9.640;2023-01-27T00:05:56;98981.53;;;-1.65;79.60
57779;BME280;43608;49.486;9.640;2023-01-27T00:06:30;98979.16;;;-1.60;79.43
57779;BME280;43608;49.486;9.640;2023-01-27T00:07:00;98980.81;;;-1.62;79.24
57779;BME280;43608;49.486;9.640;2023-01-27T00:07:31;98974.56;;;-1.66;79.58
57779;BME280;43608;49.486;9.640;2023-01-27T00:08:01;98981.44;;;-1.67;79.18
57779;BME280;43608;49.486;9.640;2023-01-27T00:08:32;98989.47;;;-1.62;79.22
57779;BME280;43608;49.486;9.640;2023-01-27T00:09:02;98986.06;;;-1.61;79.42
57779;BME280;43608;49.486;9.640;2023-01-27T00:09:32;98980.56;;;-1.67;79.30
57779;BME280;43608;49.486;9.640;2023-01-27T00:10:04;98990.59;;;-1.57;79.71
57779;BME280;43608;49.486;9.640;2023-01-27T00:10:37;98978.94;;;-1.65;79.34
57779;BME280;43608;49.486;9.640;2023-01-27T00:11:07;98987.84;;;-1.60;79.55
57779;BME280;43608;49.486;9.640;2023-01-27T00:11:57;98986.00;;;-1.62;79.42
57779;BME280;43608;49.486;9.640;2023-01-27T00:12:47;98994.81;;;-1.59;79.27
57779;BME280;43608;49.486;9.640;2023-01-27T00:13:36;98985.16;;;-1.61;79.61
57779;BME280;43608;49.486;9.640;2023-01-27T00:14:06;98990.53;;;-1.58;79.20
57779;BME280;43608;49.486;9.640;2023-01-27T00:14:36;98980.88;;;-1.61;79.77
57779;BME280;43608;49.486;9.640;2023-01-27T00:15:08;98978.94;;;-1.65;79.26
57779;BME280;43608;49.486;9.640;2023-01-27T00:15:39;98993.25;;;-1.55;79.65
57779;BME280;43608;49.486;9.640;2023-01-27T00:16:09;98991.47;;;-1.56;79.67
57779;BME280;43608;49.486;9.640;2023-01-27T00:16:40;98986.28;;;-1.56;79.48
57779;BME280;43608;49.486;9.640;2023-01-27T00:17:10;98992.38;;;-1.56;79.67
57779;BME280;43608;49.486;9.640;2023-01-27T00:17:41;98969.44;;;-1.64;79.31
57779;BME280;43608;49.486;9.640;2023-01-27T00:18:12;98980.06;;;-1.60;79.81
57779;BME280;43608;49.486;9.640;2023-01-27T00:18:42;98979.81;;;-1.64;79.58
57779;BME280;43608;49.486;9.640;2023-01-27T00:19:13;98970.97;;;-1.68;79.54
57779;BME280;43608;49.486;9.640;2023-01-27T00:19:43;98973.75;;;-1.65;79.63
57779;BME280;43608;49.486;9.640;2023-01-27T00:20:14;98980.63;;;-1.66;79.76
57779;BME280;43608;49.486;9.640;2023-01-27T00:21:04;98976.25;;;-1.67;79.89
57779;BME280;43608;49.486;9.640;2023-01-27T00:21:53;98975.28;;;-1.69;79.43
57779;BME280;43608;49.486;9.640;2023-01-27T00:22:42;98957.41;;;-1.80;79.41
57779;BME280;43608;49.486;9.640;2023-01-27T00:23:31;98982.41;;;-1.64;79.55
57779;BME280;43608;49.486;9.640;2023-01-27T00:24:20;98965.66;;;-1.71;79.52
57779;BME280;43608;49.486;9.640;2023-01-27T00:25:05;98951.41;;;-1.79;79.90
57779;BME280;43608;49.486;9.640;2023-01-27T00:25:36;98982.50;;;-1.63;79.85
57779;BME280;43608;49.486;9.640;2023-01-27T00:26:09;98973.44;;;-1.71;79.80
57779;BME280;43608;49.486;9.640;2023-01-27T00:26:40;98985.25;;;-1.60;79.49
57779;BME280;43608;49.486;9.640;2023-01-27T00:27:11;98989.47;;;-1.62;79.56
57779;BME280;43608;49.486;9.640;2023-01-27T00:27:41;98979.00;;;-1.63;79.77
57779;BME280;43608;49.486;9.640;2023-01-27T00:28:12;98976.19;;;-1.68;80.03
57779;BME280;43608;49.486;9.640;2023-01-27T00:28:51;98994.00;;;-1.58;79.80
57779;BME280;43608;49.486;9.640;2023-01-27T00:29:22;98968.16;;;-1.73;79.75
57779;BME280;43608;49.486;9.640;2023-01-27T00:29:52;98996.59;;;-1.58;79.71
57779;BME280;43608;49.486;9.640;2023-01-27T00:30:23;98994.06;;;-1.56;79.92
57779;BME280;43608;49.486;9.640;2023-01-27T00:30:53;98990.53;;;-1.58;80.03
57779;BME280;43608;49.486;9.640;2023-01-27T00:31:23;98976.34;;;-1.65;79.74
57779;BME280;43608;49.486;9.640;2023-01-27T00:32:12;98996.66;;;-1.56;79.79
57779;BME280;43608;49.486;9.640;2023-01-27T00:33:01;98989.47;;;-1.62;79.95
57779;BME280;43608;49.486;9.640;2023-01-27T00:33:50;98985.16;;;-1.61;79.71
57779;BME280;43608;49.486;9.640;2023-01-27T00:34:23;98947.81;;;-1.81;80.02
57779;BME280;43608;49.486;9.640;2023-01-27T00:34:53;98992.16;;;-1.60;80.07
57779;BME280;43608;49.486;9.640;2023-01-27T00:35:24;98982.34;;;-1.66;79.84
57779;BME280;43608;49.486;9.640;2023-01-27T00:35:58;98981.63;;;-1.63;80.00
57779;BME280;43608;49.486;9.640;2023-01-27T00:36:30;98979.75;;;-1.66;79.92
57779;BME280;43608;49.486;9.640;2023-01-27T00:37:00;98972.78;;;-1.67;80.26
57779;BME280;43608;49.486;9.640;2023-01-27T00:37:31;98983.41;;;-1.62;80.11
57779;BME280;43608;49.486;9.640;2023-01-27T00:38:01;98962.13;;;-1.72;79.98
57779;BME280;43608;49.486;9.640;2023-01-27T00:38:34;98994.91;;;-1.57;79.86
57779;BME280;43608;49.486;9.640;2023-01-27T00:39:10;98987.94;;;-1.58;80.07
57779;BME280;43608;49.486;9.640;2023-01-27T00:39:54;98990.53;;;-1.58;80.18
57779;BME280;43608;49.486;9.640;2023-01-27T00:40:25;98982.56;;;-1.61;80.09
57779;BME280;43608;49.486;9.640;2023-01-27T00:40:55;98987.13;;;-1.57;80.32
57779;BME280;43608;49.486;9.640;2023-01-27T00:41:44;98964.59;;;-1.75;79.96
57779;BME280;43608;49.486;9.640;2023-01-27T00:42:14;98981.63;;;-1.63;80.23
57779;BME280;43608;49.486;9.640;2023-01-27T00:42:45;98994.91;;;-1.57;80.45
57779;BME280;43608;49.486;9.640;2023-01-27T00:43:15;98985.25;;;-1.60;79.97
57779;BME280;43608;49.486;9.640;2023-01-27T00:43:47;98981.75;;;-1.60;80.27
57779;BME280;43608;49.486;9.640;2023-01-27T00:44:18;98989.53;;;-1.60;79.94
57779;BME280;43608;49.486;9.640;2023-01-27T00:44:48;98973.50;;;-1.70;79.82
57779;BME280;43608;49.486;9.640;2023-01-27T00:45:37;98974.31;;;-1.71;80.30
57779;BME280;43608;49.486;9.640;2023-01-27T00:46:23;98988.75;;;-1.59;80.40
57779;BME280;43608;49.486;9.640;2023-01-27T00:46:53;98984.22;;;-1.63;79.94
57779;BME280;43608;49.486;9.640;2023-01-27T00:47:24;98970.91;;;-1.70;79.97
57779;BME280;43608;49.486;9.640;2023-01-27T00:47:54;98997.41;;;-1.59;80.31
57779;BME280;43608;49.486;9.640;2023-01-27T00:48:25;98997.41;;;-1.59;80.00
57779;BME280;43608;49.486;9.640;2023-01-27T00:48:55;98969.84;;;-1.73;79.84
57779;BME280;43608;49.486;9.640;2023-01-27T00:49:26;98993.78;;;-1.62;80.04
57779;BME280;43608;49.486;9.640;2023-01-27T00:49:56;98999.13;;;-1.59;79.82
57779;BME280;43608;49.486;9.640;2023-01-27T00:50:27;98994.59;;;-1.63;80.10
57779;BME280;43608;49.486;9.640;2023-01-27T00:50:57;98975.00;;;-1.75;79.80
57779;BME280;43608;49.486;9.640;2023-01-27T00:51:28;98990.34;;;-1.61;79.74
57779;BME280;43608;49.486;9.640;2023-01-27T00:51:58;98988.44;;;-1.66;80.05
57779;BME280;43608;49.486;9.640;2023-01-27T00:52:28;98959.94;;;-1.82;79.78
57779;BME280;43608;49.486;9.640;2023-01-27T00:52:59;98978.63;;;-1.71;80.17
57779;BME280;43608;49.486;9.640;2023-01-27T00:53:31;98984.03;;;-1.67;79.93
57779;BME280;43608;49.486;9.640;2023-01-27T00:54:03;98992.16;;;-1.60;80.07
57779;BME280;43608;49.486;9.640;2023-01-27T00:54:34;98969.72;;;-1.76;80.10
57779;BME280;43608;49.486;9.640;2023-01-27T00:55:05;98990.47;;;-1.60;80.13
57779;BME280;43608;49.486;9.640;2023-01-27T00:55:35;98927.03;;;-2.00;79.78
57779;BME280;43608;49.486;9.640;2023-01-27T00:56:06;98978.72;;;-1.70;79.96
57779;BME280;43608;49.486;9.640;2023-01-27T00:56:37;98966.44;;;-1.72;80.11
57779;BME280;43608;49.486;9.640;2023-01-27T00:57:07;98992.06;;;-1.62;80.01
57779;BME280;43608;49.486;9.640;2023-01-27T00:57:38;98990.28;;;-1.63;79.90
57779;BME280;43608;49.486;9.640;2023-01-27T00:58:08;98981.44;;;-1.67;79.82
57779;BME280;43608;49.486;9.640;2023-01-27T00:58:38;98992.06;;;-1.62;80.24
57779;BME280;43608;49.486;9.640;2023-01-27T00:59:09;98968.91;;;-1.75;79.87
57779;BME280;43608;49.486;9.640;2023-01-27T00:59:39;98982.56;;;-1.61;79.92
57779;BME280;43608;49.486;9.640;2023-01-27T01:00:10;98986.81;;;-1.63;80.10
57779;BME280;43608;49.486;9.640;2023-01-27T01:00:41;98978.03;;;-1.66;79.81
57779;BME280;43608;49.486;9.640;2023-01-27T01:01:14;98990.34;;;-1.61;79.90
57779;BME280;43608;49.486;9.640;2023-01-27T01:01:44;98981.44;;;-1.67;79.84
57779;BME280;43608;49.486;9.640;2023-01-27T01:02:15;98992.22;;;-1.59;80.36
57779;BME280;43608;49.486;9.640;2023-01-27T01:02:45;98980.63;;;-1.66;80.23
57779;BME280;43608;49.486;9.640;2023-01-27T01:03:16;98991.41;;;-1.58;79.90
57779;BME280;43608;49.486;9.640;2023-01-27T01:03:46;98982.56;;;-1.61;80.05
57779;BME280;43608;49.486;9.640;2023-01-27T01:04:16;98981.75;;;-1.60;80.00
57779;BME280;43608;49.486;9.640;2023-01-27T01:04:47;98980.69;;;-1.64;80.01
57779;BME280;43608;49.486;9.640;2023-01-27T01:05:17;98965.56;;;-1.73;79.85
57779;BME280;43608;49.486;9.640;2023-01-27T01:05:48;98982.56;;;-1.61;79.81
57779;BME280;43608;49.486;9.640;2023-01-27T01:06:19;98986.28;;;-1.56;80.12
57779;BME280;43608;49.486;9.640;2023-01-27T01:06:49;98962.97;;;-1.73;80.33
57779;BME280;43608;49.486;9.640;2023-01-27T01:07:20;98983.59;;;-1.58;79.83
57779;BME280;43608;49.486;9.640;2023-01-27T01:07:50;98970.47;;;-1.61;80.07
57779;BME280;43608;49.486;9.640;2023-01-27T01:08:21;98973.00;;;-1.62;79.76
57779;BME280;43608;49.486;9.640;2023-01-27T01:08:51;98951.66;;;-1.73;79.96
57779;BME280;43608;49.486;9.640;2023-01-27T01:09:22;98989.84;;;-1.54;79.98
57779;BME280;43608;49.486;9.640;2023-01-27T01:09:52;98973.88;;;-1.62;80.05
57779;BME280;43608;49.486;9.640;2023-01-27T01:10:23;98979.16;;;-1.60;79.75
57779;BME280;43608;49.486;9.640;2023-01-27T01:10:53;98977.72;;;-1.54;79.91
57779;BME280;43608;49.486;9.640;2023-01-27T01:11:24;98976.56;;;-1.60;80.08
57779;BME280;43608;49.486;9.640;2023-01-27T01:11:55;98960.50;;;-1.70;80.39
57779;BME280;43608;49.486;9.640;2023-01-27T01:12:25;98965.94;;;-1.65;80.30
57779;BME280;43608;49.486;9.640;2023-01-27T01:12:55;98959.53;;;-1.72;80.36
57779;BME280;43608;49.486;9.640;2023-01-27T01:13:26;98995.13;;;-1.53;80.20
57779;BME280;43608;49.486;9.640;2023-01-27T01:13:57;98966.81;;;-1.64;80.44
57779;BME280;43608;49.486;9.640;2023-01-27T01:14:27;98968.56;;;-1.65;80.19
57779;BME280;43608;49.486;9.640;2023-01-27T01:14:58;98978.34;;;-1.59;80.26
57779;BME280;43608;49.486;9.640;2023-01-27T01:15:28;98987.25;;;-1.54;79.99
57779;BME280;43608;49.486;9.640;2023-01-27T01:16:05;98977.53;;;-1.58;80.13
57779;BME280;43608;49.486;9.640;2023-01-27T01:16:35;98951.75;;;-1.72;80.11
57779;BME280;43608;49.486;9.640;2023-01-27T01:17:06;98984.59;;;-1.56;80.25
57779;BME280;43608;49.486;9.640;2023-01-27T01:17:36;98982.00;;;-1.56;80.03
57779;BME280;43608;49.486;9.640;2023-01-27T01:18:08;98990.97;;;-1.49;80.14
57779;BME280;43608;49.486;9.640;2023-01-27T01:18:38;98982.88;;;-1.55;80.05
57779;BME280;43608;49.486;9.640;2023-01-27T01:19:08;98984.66;;;-1.54;79.94
57779;BME280;43608;49.486;9.640;2023-01-27T01:19:39;98978.47;;;-1.56;80.02
57779;BME280;43608;49.486;9.640;2023-01-27T01:20:09;98973.00;;;-1.62;79.82
57779;BME280;43608;49.486;9.640;2023-01-27T01:20:42;98963.19;;;-1.68;79.72
57779;BME280;43608;49.486;9.640;2023-01-27T01:21:13;98991.78;;;-1.50;79.83
57779;BME280;43608;49.486;9.640;2023-01-27T01:21:43;98988.22;;;-1.52;80.12
57779;BME280;43608;49.486;9.640;2023-01-27T01:22:14;98958.06;;;-1.67;79.87
57779;BME280;43608;49.486;9.640;2023-01-27T01:22:44;98990.09;;;-1.50;79.78
57779;BME280;43608;49.486;9.640;2023-01-27T01:23:15;98968.44;;;-1.67;79.97
57779;BME280;43608;49.486;9.640;2023-01-27T01:23:45;98978.41;;;-1.58;80.12
57779;BME280;43608;49.486;9.640;2023-01-27T01:24:16;98991.66;;;-1.53;80.20
57779;BME280;43608;49.486;9.640;2023-01-27T01:24:46;98991.72;;;-1.52;80.23
57779;BME280;43608;49.486;9.640;2023-01-27T01:25:17;98979.38;;;-1.56;79.89
57779;BME280;43608;49.486;9.640;2023-01-27T01:25:54;98994.38;;;-1.50;79.82
57779;BME280;43608;49.486;9.640;2023-01-27T01:26:25;98955.19;;;-1.73;79.83
57779;BME280;43608;49.486;9.640;2023-01-27T01:26:55;98988.31;;;-1.51;79.87
57779;BME280;43608;49.486;9.640;2023-01-27T01:27:26;98972.09;;;-1.63;79.98
57779;BME280;43608;49.486;9.640;2023-01-27T01:27:56;98971.34;;;-1.60;80.23
57779;BME280;43608;49.486;9.640;2023-01-27T01:28:27;98967.69;;;-1.64;80.03
57779;BME280;43608;49.486;9.640;2023-01-27T01:28:57;98978.41;;;-1.58;80.10
57779;BME280;43608;49.486;9.640;2023-01-27T01:29:27;98987.25;;;-1.54;80.09
57779;BME280;43608;49.486;9.640;2023-01-27T01:29:58;98990.66;;;-1.55;79.83
57779;BME280;43608;49.486;9.640;2023-01-27T01:30:30;98976.41;;;-1.63;80.04
57779;BME280;43608;49.486;9.640;2023-01-27T01:31:12;98956.06;;;-1.72;79.88
57779;BME280;43608;49.486;9.640;2023-01-27T01:31:42;98967.44;;;-1.70;80.10
57779;BME280;43608;49.486;9.640;2023-01-27T01:32:13;98985.31;;;-1.58;80.02
57779;BME280;43608;49.486;9.640;2023-01-27T01:32:43;98977.47;;;-1.60;79.62
57779;BME280;43608;49.486;9.640;2023-01-27T01:33:14;98987.19;;;-1.56;80.08
57779;BME280;43608;49.486;9.640;2023-01-27T01:33:46;98967.44;;;-1.70;80.50
57779;BME280;43608;49.486;9.640;2023-01-27T01:34:16;98997.72;;;-1.53;80.12
57779;BME280;43608;49.486;9.640;2023-01-27T01:34:47;98978.19;;;-1.62;80.12
57779;BME280;43608;49.486;9.640;2023-01-27T01:35:18;98994.31;;;-1.52;80.34
57779;BME280;43608;49.486;9.640;2023-01-27T01:35:48;98995.84;;;-1.55;80.21
57779;BME280;43608;49.486;9.640;2023-01-27T01:36:19;98994.25;;;-1.53;80.39
57779;BME280;43608;49.486;9.640;2023-01-27T01:36:50;98993.25;;;-1.55;80.46
57779;BME280;43608;49.486;9.640;2023-01-27T01:37:20;98964.84;;;-1.70;80.58
57779;BME280;43608;49.486;9.640;2023-01-27T01:37:52;98982.56;;;-1.61;80.35
57779;BME280;43608;49.486;9.640;2023-01-27T01:38:23;98974.56;;;-1.66;80.49
57779;BME280;43608;49.486;9.640;2023-01-27T01:38:54;98978.28;;;-1.61;80.18
57779;BME280;43608;49.486;9.640;2023-01-27T01:39:25;98981.75;;;-1.60;80.52
57779;BME280;43608;49.486;9.640;2023-01-27T01:39:56;98976.41;;;-1.63;80.38
57779;BME280;43608;49.486;9.640;2023-01-27T01:40:26;98964.84;;;-1.70;80.45
57779;BME280;43608;49.486;9.640;2023-01-27T01:40:56;98993.25;;;-1.55;80.65
57779;BME280;43608;49.486;9.640;2023-01-27T01:41:27;98986.28;;;-1.56;80.36
57779;BME280;43608;49.486;9.640;2023-01-27T01:41:57;98988.88;;;-1.56;80.38
57779;BME280;43608;49.486;9.640;2023-01-27T01:42:48;98975.75;;;-1.59;80.21
57779;BME280;43608;49.486;9.640;2023-01-27T01:43:20;98988.81;;;-1.58;80.55
57779;BME280;43608;49.486;9.640;2023-01-27T01:43:52;98988.88;;;-1.56;80.69
57779;BME280;43608;49.486;9.640;2023-01-27T01:44:27;98990.66;;;-1.55;80.43
57779;BME280;43608;49.486;9.640;2023-01-27T01:46:08;98983.59;;;-1.58;80.29
57779;BME280;43608;49.486;9.640;2023-01-27T01:46:39;98989.72;;;-1.57;80.51
57779;BME280;43608;49.486;9.640;2023-01-27T01:47:16;98973.81;;;-1.63;80.48
57779;BME280;43608;49.486;9.640;2023-01-27T01:47:46;98979.22;;;-1.59;80.29
57779;BME280;43608;49.486;9.640;2023-01-27T01:48:52;98984.59;;;-1.56;80.26
57779;BME280;43608;49.486;9.640;2023-01-27T01:49:34;98987.19;;;-1.56;80.18
57779;BME280;43608;49.486;9.640;2023-01-27T01:50:06;98987.13;;;-1.57;80.69
57779;BME280;43608;49.486;9.640;2023-01-27T01:50:37;98966.75;;;-1.66;80.54
57779;BME280;43608;49.486;9.640;2023-01-27T01:51:54;98961.19;;;-1.74;80.69
57779;BME280;43608;49.486;9.640;2023-01-27T01:52:26;98996.66;;;-1.56;80.72
57779;BME280;43608;49.486;9.640;2023-01-27T01:52:57;98969.28;;;-1.68;80.50
57779;BME280;43608;49.486;9.640;2023-01-27T01:53:33;98977.28;;;-1.63;80.57
57779;BME280;43608;49.486;9.640;2023-01-27T01:54:08;98987.19;;;-1.56;80.47
57779;BME280;43608;49.486;9.640;2023-01-27T01:54:43;98983.66;;;-1.56;80.63
57779;BME280;43608;49.486;9.640;2023-01-27T01:55:15;98974.03;;;-1.59;80.60
57779;BME280;43608;49.486;9.640;2023-01-27T01:55:46;98980.13;;;-1.58;80.61
57779;BME280;43608;49.486;9.640;2023-01-27T01:56:22;98962.97;;;-1.73;80.94
57779;BME280;43608;49.486;9.640;2023-01-27T01:57:04;98970.09;;;-1.69;80.81
57779;BME280;43608;49.486;9.640;2023-01-27T01:57:36;98972.16;;;-1.61;80.63
57779;BME280;43608;49.486;9.640;2023-01-27T01:58:09;98989.91;;;-1.53;80.67
57779;BME280;43608;49.486;9.640;2023-01-27T01:58:43;98992.59;;;-1.51;80.83
57779;BME280;43608;49.486;9.640;2023-01-27T01:59:35;98990.09;;;-1.50;80.89
57779;BME280;43608;49.486;9.640;2023-01-27T02:00:07;98988.38;;;-1.49;80.82
57779;BME280;43608;49.486;9.640;2023-01-27T02:00:38;98967.88;;;-1.61;80.67
57779;BME280;43608;49.486;9.640;2023-01-27T02:01:09;98959.34;;;-1.58;80.91
57779;BME280;43608;49.486;9.640;2023-01-27T02:01:40;98982.44;;;-1.46;80.85
57779;BME280;43608;49.486;9.640;2023-01-27T02:02:13;98987.81;;;-1.42;81.13
57779;BME280;43608;49.486;9.640;2023-01-27T02:02:46;98973.75;;;-1.47;80.83
57779;BME280;43608;49.486;9.640;2023-01-27T02:03:17;98968.56;;;-1.47;80.78
57779;BME280;43608;49.486;9.640;2023-01-27T02:03:52;98986.34;;;-1.37;80.96
57779;BME280;43608;49.486;9.640;2023-01-27T02:04:27;98951.75;;;-1.54;80.56
57779;BME280;43608;49.486;9.640;2023-01-27T02:05:04;98978.63;;;-1.35;80.92
57779;BME280;43608;49.486;9.640;2023-01-27T02:05:39;98979.38;;;-1.38;80.58
57779;BME280;43608;49.486;9.640;2023-01-27T02:06:11;98961.75;;;-1.43;80.66
57779;BME280;43608;49.486;9.640;2023-01-27T02:06:49;98905.81;;;-1.73;80.21
57779;BME280;43608;49.486;9.640;2023-01-27T02:08:08;98979.75;;;-1.30;80.43
57779;BME280;43608;49.486;9.640;2023-01-27T02:08:40;98984.03;;;-1.30;80.59
57779;BME280;43608;49.486;9.640;2023-01-27T02:09:11;98970.91;;;-1.34;80.13
57779;BME280;43608;49.486;9.640;2023-01-27T02:09:42;98970.91;;;-1.34;80.48
57779;BME280;43608;49.486;9.640;2023-01-27T02:10:12;98977.06;;;-1.31;80.55
57779;BME280;43608;49.486;9.640;2023-01-27T02:10:43;98954.88;;;-1.43;80.47
57779;BME280;43608;49.486;9.640;2023-01-27T02:11:14;98967.41;;;-1.34;80.24
57779;BME280;43608;49.486;9.640;2023-01-27T02:11:44;98981.44;;;-1.30;80.11
57779;BME280;43608;49.486;9.640;2023-01-27T02:12:15;98951.38;;;-1.43;80.37
57779;BME280;43608;49.486;9.640;2023-01-27T02:12:45;98979.81;;;-1.28;80.54
57779;BME280;43608;49.486;9.640;2023-01-27T02:13:16;98972.69;;;-1.33;80.12
57779;BME280;43608;49.486;9.640;2023-01-27T02:13:46;98970.84;;;-1.35;80.19
57779;BME280;43608;49.486;9.640;2023-01-27T02:14:17;98970.16;;;-1.31;80.34
57779;BME280;43608;49.486;9.640;2023-01-27T02:14:48;98982.47;;;-1.27;80.39
57779;BME280;43608;49.486;9.640;2023-01-27T02:15:19;98976.41;;;-1.27;80.16
57779;BME280;43608;49.486;9.640;2023-01-27T02:15:51;98954.03;;;-1.42;80.36
57779;BME280;43608;49.486;9.640;2023-01-27T02:16:23;98971.78;;;-1.33;80.37
57779;BME280;43608;49.486;9.640;2023-01-27T02:16:54;98959.41;;;-1.39;80.38
57779;BME280;43608;49.486;9.640;2023-01-27T02:17:24;98972.75;;;-1.31;80.16
57779;BME280;43608;49.486;9.640;2023-01-27T02:17:55;98962.00;;;-1.39;80.13
57779;BME280;43608;49.486;9.640;2023-01-27T02:18:26;98982.25;;;-1.31;80.05
57779;BME280;43608;49.486;9.640;2023-01-27T02:18:56;98952.19;;;-1.44;80.03
57779;BME280;43608;49.486;9.640;2023-01-27T02:19:57;98979.66;;;-1.31;80.39
57779;BME280;43608;49.486;9.640;2023-01-27T02:20:37;98983.16;;;-1.31;80.24
57779;BME280;43608;49.486;9.640;2023-01-27T02:21:09;98977.06;;;-1.31;80.30
57779;BME280;43608;49.486;9.640;2023-01-27T02:21:39;98974.31;;;-1.35;80.10
57779;BME280;43608;49.486;9.640;2023-01-27T02:22:15;98963.69;;;-1.39;80.57
57779;BME280;43608;49.486;9.640;2023-01-27T02:23:54;98976.09;;;-1.34;80.40
57779;BME280;43608;49.486;9.640;2023-01-27T02:24:32;98879.75;;;-1.92;79.99
57779;BME280;43608;49.486;9.640;2023-01-27T02:26:34;98982.13;;;-1.35;80.61
57779;BME280;43608;49.486;9.640;2023-01-27T02:27:06;98978.53;;;-1.37;80.57
57779;BME280;43608;49.486;9.640;2023-01-27T02:27:37;98939.50;;;-1.56;80.24
57779;BME280;43608;49.486;9.640;2023-01-27T02:28:07;98964.53;;;-1.40;80.55
57779;BME280;43608;49.486;9.640;2023-01-27T02:28:37;98975.06;;;-1.37;80.67
57779;BME280;43608;49.486;9.640;2023-01-27T02:29:13;98976.84;;;-1.36;80.53
57779;BME280;43608;49.486;9.640;2023-01-27T02:29:44;98967.13;;;-1.40;80.57
57779;BME280;43608;49.486;9.640;2023-01-27T02:30:14;98956.50;;;-1.45;80.58
57779;BME280;43608;49.486;9.640;2023-01-27T02:30:45;98959.22;;;-1.42;80.44
57779;BME280;43608;49.486;9.640;2023-01-27T02:31:15;98968.88;;;-1.39;80.57
57779;BME280;43608;49.486;9.640;2023-01-27T02:31:45;98973.28;;;-1.38;80.50
57779;BME280;43608;49.486;9.640;2023-01-27T02:32:25;98975.94;;;-1.37;80.38
57779;BME280;43608;49.486;9.640;2023-01-27T02:32:55;98976.69;;;-1.39;80.27
57779;BME280;43608;49.486;9.640;2023-01-27T02:33:26;98973.13;;;-1.41;80.65
57779;BME280;43608;49.486;9.640;2023-01-27T02:33:59;98968.69;;;-1.44;80.75
57779;BME280;43608;49.486;9.640;2023-01-27T02:34:35;98945.53;;;-1.57;80.53
57779;BME280;43608;49.486;9.640;2023-01-27T02:35:10;98976.63;;;-1.41;80.55
57779;BME280;43608;49.486;9.640;2023-01-27T02:35:53;98973.06;;;-1.43;80.71
57779;BME280;43608;49.486;9.640;2023-01-27T02:36:26;98966.75;;;-1.48;80.45
57779;BME280;43608;49.486;9.640;2023-01-27T02:37:02;98971.97;;;-1.48;80.26
57779;BME280;43608;49.486;9.640;2023-01-27T02:37:35;98970.16;;;-1.49;80.26
57779;BME280;43608;49.486;9.640;2023-01-27T02:38:07;98982.56;;;-1.43;80.67
57779;BME280;43608;49.486;9.640;2023-01-27T02:38:43;98949.63;;;-1.62;80.54
57779;BME280;43608;49.486;9.640;2023-01-27T02:39:16;98981.63;;;-1.45;80.49
57779;BME280;43608;49.486;9.640;2023-01-27T02:39:49;98962.88;;;-1.56;80.52
57779;BME280;43608;49.486;9.640;2023-01-27T02:40:21;98977.97;;;-1.49;80.62
57779;BME280;43608;49.486;9.640;2023-01-27T02:40:54;98953.09;;;-1.62;80.43
57779;BME280;43608;49.486;9.640;2023-01-27T02:41:56;98982.34;;;-1.48;80.75
57779;BME280;43608;49.486;9.640;2023-01-27T02:42:28;98956.50;;;-1.63;80.90
57779;BME280;43608;49.486;9.640;2023-01-27T02:42:59;98981.38;;;-1.50;80.51
57779;BME280;43608;49.486;9.640;2023-01-27T02:43:29;98968.91;;;-1.57;80.92
57779;BME280;43608;49.486;9.640;2023-01-27T02:44:00;98965.41;;;-1.58;80.84
57779;BME280;43608;49.486;9.640;2023-01-27T02:44:31;98952.97;;;-1.65;80.78
57779;BME280;43608;49.486;9.640;2023-01-27T02:45:01;98966.22;;;-1.59;80.89
57779;BME280;43608;49.486;9.640;2023-01-27T02:45:31;98959.84;;;-1.66;80.60
57779;BME280;43608;49.486;9.640;2023-01-27T02:46:02;98984.88;;;-1.50;81.03
57779;BME280;43608;49.486;9.640;2023-01-27T02:46:33;98979.47;;;-1.54;80.45
57779;BME280;43608;49.486;9.640;2023-01-27T02:47:03;98962.88;;;-1.56;81.15
57779;BME280;43608;49.486;9.640;2023-01-27T02:47:34;98970.84;;;-1.53;80.63
57779;BME280;43608;49.486;9.640;2023-01-27T02:48:04;98976.19;;;-1.50;80.95
57779;BME280;43608;49.486;9.640;2023-01-27T02:48:35;98977.09;;;-1.50;80.70
57779;BME280;43608;49.486;9.640;2023-01-27T02:49:05;98963.56;;;-1.60;80.91
57779;BME280;43608;49.486;9.640;2023-01-27T02:49:36;98979.47;;;-1.54;80.75
57779;BME280;43608;49.486;9.640;2023-01-27T02:50:06;98951.16;;;-1.66;80.65
57779;BME280;43608;49.486;9.640;2023-01-27T02:50:37;98969.00;;;-1.56;80.80
57779;BME280;43608;49.486;9.640;2023-01-27T02:51:07;98960.81;;;-1.63;81.00
57779;BME280;43608;49.486;9.640;2023-01-27T02:51:38;98942.31;;;-1.70;80.76
57779;BME280;43608;49.486;9.640;2023-01-27T02:52:08;98983.09;;;-1.51;81.04
57779;BME280;43608;49.486;9.640;2023-01-27T02:52:39;98959.16;;;-1.61;80.98
57779;BME280;43608;49.486;9.640;2023-01-27T02:53:09;98955.81;;;-1.59;80.95
57779;BME280;43608;49.486;9.640;2023-01-27T02:53:39;98965.47;;;-1.56;80.92
57779;BME280;43608;49.486;9.640;2023-01-27T02:54:10;98970.84;;;-1.53;80.88
57779;BME280;43608;49.486;9.640;2023-01-27T02:54:41;98967.34;;;-1.54;80.63
57779;BME280;43608;49.486;9.640;2023-01-27T02:55:11;98939.72;;;-1.70;80.58
57779;BME280;43608;49.486;9.640;2023-01-27T02:55:42;98944.25;;;-1.66;80.68
57779;BME280;43608;49.486;9.640;2023-01-27T02:56:12;98938.09;;;-1.68;80.83
57779;BME280;43608;49.486;9.640;2023-01-27T02:56:42;98973.50;;;-1.52;80.77
57779;BME280;43608;49.486;9.640;2023-01-27T02:57:13;98978.78;;;-1.50;80.39
57779;BME280;43608;49.486;9.640;2023-01-27T02:57:43;98963.56;;;-1.60;80.83
57779;BME280;43608;49.486;9.640;2023-01-27T02:58:13;98963.72;;;-1.57;81.09
57779;BME280;43608;49.486;9.640;2023-01-27T02:58:45;98967.28;;;-1.55;80.69